createdAt,value
2022-11-24T00:01:09.631Z,8.13
2022-11-24T00:03:38.267Z,8.95
2022-11-24T00:06:08.939Z,8.88
2022-11-24T00:08:37.264Z,8.88
2022-11-24T00:11:15.754Z,9.10
2022-11-24T00:13:44.153Z,8.10
2022-11-24T00:16:23.891Z,8.05
2022-11-24T00:18:53.296Z,8.00
2022-11-24T00:21:21.597Z,8.80
2022-11-24T00:23:49.545Z,8.82
2022-11-24T00:26:26.471Z,8.20
2022-11-24T00:28:55.544Z,8.82
2022-11-24T00:31:49.239Z,8.80
2022-11-24T00:34:17.036Z,8.38
2022-11-24T00:36:44.427Z,8.85
2022-11-24T00:39:13.495Z,9.15
2022-11-24T00:41:41.686Z,7.65
2022-11-24T00:44:09.395Z,8.70
2022-11-24T00:46:37.040Z,8.35
2022-11-24T00:49:04.601Z,8.02
2022-11-24T00:51:31.902Z,7.80
2022-11-24T00:53:59.944Z,8.20
2022-11-24T00:56:28.682Z,8.32
2022-11-24T00:58:56.809Z,9.13
2022-11-24T01:01:26.857Z,8.00
2022-11-24T01:03:57.460Z,7.07
2022-11-24T01:06:26.596Z,8.10
2022-11-24T01:08:55.933Z,7.78
2022-11-24T01:11:28.446Z,7.43
2022-11-24T01:13:58.301Z,7.47
2022-11-24T01:16:31.467Z,7.22
2022-11-24T01:18:58.907Z,6.13
2022-11-24T01:21:26.322Z,6.43
2022-11-24T01:23:53.644Z,6.22
2022-11-24T01:26:22.647Z,5.43
2022-11-24T01:28:54.679Z,6.03
2022-11-24T01:33:49.947Z,5.75
2022-11-24T01:36:17.551Z,5.40
2022-11-24T01:38:44.887Z,5.63
2022-11-24T01:41:23.900Z,5.93
2022-11-24T01:43:52.632Z,5.65
2022-11-24T01:46:48.191Z,5.32
2022-11-24T01:49:18.761Z,5.13
2022-11-24T01:52:04.801Z,5.10
2022-11-24T01:54:36.784Z,4.93
2022-11-24T01:57:23.847Z,4.97
2022-11-24T01:59:54.221Z,6.30
2022-11-24T02:02:28.686Z,5.97
2022-11-24T02:05:00.358Z,5.20
2022-11-24T02:07:27.733Z,5.22
2022-11-24T02:10:10.333Z,4.95
2022-11-24T02:12:39.526Z,4.70
2022-11-24T02:15:07.963Z,4.80
2022-11-24T02:17:35.241Z,5.43
2022-11-24T02:20:09.540Z,4.93
2022-11-24T02:22:55.618Z,4.50
2022-11-24T02:26:04.297Z,4.60
2022-11-24T02:28:32.056Z,4.68
2022-11-24T02:31:00.702Z,5.28
2022-11-24T02:33:28.427Z,4.38
2022-11-24T02:35:55.899Z,4.65
2022-11-24T02:38:33.995Z,4.30
2022-11-24T02:41:05.947Z,4.20
2022-11-24T02:46:02.685Z,4.72
2022-11-24T02:48:29.985Z,5.13
2022-11-24T02:50:57.263Z,6.00
2022-11-24T02:53:24.571Z,5.32
2022-11-24T02:55:52.215Z,4.88
2022-11-24T02:58:19.610Z,4.97
2022-11-24T03:00:46.928Z,4.68
2022-11-24T03:03:14.714Z,5.22
2022-11-24T03:05:42.411Z,5.22
2022-11-24T03:08:09.671Z,5.00
2022-11-24T03:10:37.019Z,4.53
2022-11-24T03:13:04.273Z,4.47
2022-11-24T03:15:32.702Z,5.30
2022-11-24T03:18:00.465Z,4.70
2022-11-24T03:20:27.821Z,5.82
2022-11-24T03:22:56.426Z,4.78
2022-11-24T03:25:24.180Z,5.55
2022-11-24T03:27:51.425Z,6.57
2022-11-24T03:30:18.892Z,4.78
2022-11-24T03:32:46.300Z,5.10
2022-11-24T03:35:13.523Z,4.70
2022-11-24T03:37:40.824Z,4.60
2022-11-24T03:40:11.610Z,5.15
2022-11-24T03:42:39.764Z,4.60
2022-11-24T03:45:44.812Z,5.53
2022-11-24T03:47:54.908Z,5.28
2022-11-24T03:50:22.134Z,4.18
2022-11-24T03:52:49.360Z,4.72
2022-11-24T03:55:16.670Z,5.25
2022-11-24T03:57:43.913Z,4.53
2022-11-24T04:00:12.034Z,5.43
2022-11-24T04:02:39.361Z,4.82
2022-11-24T04:05:07.138Z,4.88
2022-11-24T04:07:34.535Z,4.97
2022-11-24T04:10:02.013Z,4.43
2022-11-24T04:12:44.344Z,4.75
2022-11-24T04:15:17.100Z,4.50
2022-11-24T04:17:45.133Z,4.38
2022-11-24T04:20:13.145Z,4.50
2022-11-24T04:22:40.698Z,4.85
2022-11-24T04:25:09.569Z,4.43
2022-11-24T04:27:38.118Z,4.65
2022-11-24T04:30:07.555Z,5.20
2022-11-24T04:32:35.094Z,4.68
2022-11-24T04:35:02.559Z,5.00
2022-11-24T04:37:30.052Z,4.13
2022-11-24T04:39:57.376Z,4.90
2022-11-24T04:42:24.612Z,5.03
2022-11-24T04:44:51.980Z,4.68
2022-11-24T04:47:22.531Z,5.22
2022-11-24T04:49:49.979Z,5.13
2022-11-24T04:52:19.681Z,5.22
2022-11-24T04:54:48.184Z,5.05
2022-11-24T04:57:24.277Z,4.80
2022-11-24T04:59:52.779Z,4.65
2022-11-24T05:02:20.220Z,5.30
2022-11-24T05:04:47.708Z,5.75
2022-11-24T05:07:18.716Z,4.60
2022-11-24T05:10:05.948Z,5.10
2022-11-24T05:12:33.730Z,4.68
2022-11-24T05:15:02.260Z,4.85
2022-11-24T05:17:35.489Z,4.75
2022-11-24T05:20:03.780Z,4.78
2022-11-24T05:22:31.769Z,5.38
2022-11-24T05:24:59.075Z,5.72
2022-11-24T05:27:26.350Z,6.10
2022-11-24T05:29:53.610Z,5.15
2022-11-24T05:32:20.848Z,6.22
2022-11-24T05:34:48.119Z,6.05
2022-11-24T05:37:15.453Z,4.90
2022-11-24T05:39:42.705Z,5.97
2022-11-24T05:42:28.486Z,6.38
2022-11-24T05:44:55.842Z,5.20
2022-11-24T05:47:23.161Z,5.93
2022-11-24T05:49:50.461Z,6.38
2022-11-24T05:52:17.823Z,6.28
2022-11-24T05:54:45.184Z,5.82
2022-11-24T05:57:13.269Z,6.65
2022-11-24T05:59:40.586Z,5.68
2022-11-24T06:02:08.092Z,5.53
2022-11-24T06:04:35.973Z,5.85
2022-11-24T06:07:04.465Z,4.95
2022-11-24T06:09:31.695Z,4.70
2022-11-24T06:11:58.916Z,4.38
2022-11-24T06:14:26.181Z,4.32
2022-11-24T06:16:53.530Z,4.90
2022-11-24T06:19:20.773Z,4.55
2022-11-24T06:21:48.553Z,4.60
2022-11-24T06:24:15.886Z,4.35
2022-11-24T06:26:43.146Z,4.55
2022-11-24T06:29:10.426Z,4.95
2022-11-24T06:31:37.909Z,4.30
2022-11-24T06:34:11.571Z,3.95
2022-11-24T06:36:39.512Z,4.32
2022-11-24T06:39:07.752Z,4.60
2022-11-24T06:41:35.030Z,4.28
2022-11-24T06:44:05.744Z,4.82
2022-11-24T06:46:33.215Z,4.18
2022-11-24T06:49:00.799Z,4.47
2022-11-24T06:51:29.518Z,4.68
2022-11-24T06:53:56.925Z,4.10
2022-11-24T06:56:24.955Z,4.07
2022-11-24T06:58:53.737Z,5.82
2022-11-24T07:01:23.621Z,4.40
2022-11-24T07:03:52.134Z,4.40
2022-11-24T07:06:20.817Z,4.25
2022-11-24T07:08:48.168Z,7.15
2022-11-24T07:11:18.970Z,3.55
2022-11-24T07:13:47.332Z,4.00
2022-11-24T07:16:17.231Z,3.35
2022-11-24T07:18:45.545Z,4.05
2022-11-24T07:21:13.191Z,3.47
2022-11-24T07:23:40.693Z,3.88
2022-11-24T07:26:09.135Z,4.20
2022-11-24T07:28:37.056Z,4.00
2022-11-24T07:31:09.183Z,4.47
2022-11-24T07:33:36.876Z,3.92
2022-11-24T07:36:05.691Z,3.80
2022-11-24T07:38:34.250Z,3.90
2022-11-24T07:41:10.280Z,4.35
2022-11-24T07:43:38.719Z,4.50
2022-11-24T07:46:08.352Z,4.15
2022-11-24T07:48:35.819Z,4.60
2022-11-24T07:51:04.603Z,4.10
2022-11-24T07:53:32.946Z,4.53
2022-11-24T07:56:02.806Z,3.92
2022-11-24T07:58:33.153Z,4.10
2022-11-24T08:01:09.256Z,3.90
2022-11-24T08:03:36.568Z,3.80
2022-11-24T08:08:51.232Z,3.58
2022-11-24T08:11:18.866Z,4.05
2022-11-24T08:13:46.483Z,3.50
2022-11-24T08:16:16.340Z,3.15
2022-11-24T08:18:44.169Z,3.35
2022-11-24T08:21:14.154Z,3.63
2022-11-24T08:23:42.640Z,2.80
2022-11-24T08:26:16.048Z,2.92
2022-11-24T08:28:44.424Z,3.83
2022-11-24T08:31:14.385Z,3.63
2022-11-24T08:33:42.450Z,3.08
2022-11-24T08:36:13.988Z,3.55
2022-11-24T08:38:42.034Z,2.90
2022-11-24T08:41:13.036Z,2.90
2022-11-24T08:43:40.939Z,2.70
2022-11-24T08:46:10.893Z,3.05
2022-11-24T08:48:38.706Z,3.20
2022-11-24T08:51:12.401Z,2.90
2022-11-24T08:53:40.584Z,3.08
2022-11-24T08:56:09.061Z,4.18
2022-11-24T08:58:37.546Z,2.85
2022-11-24T09:01:13.898Z,3.17
2022-11-24T09:03:49.711Z,3.20
2022-11-24T09:06:20.066Z,2.97
2022-11-24T09:08:47.367Z,2.83
2022-11-24T09:11:16.757Z,3.15
2022-11-24T09:13:44.816Z,2.78
2022-11-24T09:16:14.822Z,3.17
2022-11-24T09:18:42.655Z,2.85
2022-11-24T09:21:19.014Z,2.70
2022-11-24T09:23:50.709Z,3.47
2022-11-24T09:26:21.052Z,3.65
2022-11-24T09:28:48.806Z,3.10
2022-11-24T09:31:18.007Z,3.38
2022-11-24T09:33:45.674Z,2.33
2022-11-24T09:36:14.925Z,3.47
2022-11-24T09:38:42.588Z,3.53
2022-11-24T09:41:21.797Z,2.60
2022-11-24T09:44:09.267Z,2.97
2022-11-24T09:46:43.462Z,2.85
2022-11-24T09:49:22.724Z,2.20
2022-11-24T09:51:55.110Z,2.95
2022-11-24T09:54:28.865Z,2.40
2022-11-24T09:57:00.976Z,3.17
2022-11-24T09:59:28.960Z,3.00
2022-11-24T10:01:56.784Z,2.95
2022-11-24T10:04:40.344Z,2.85
2022-11-24T10:07:28.023Z,2.33
2022-11-24T10:10:01.101Z,2.67
2022-11-24T10:12:49.339Z,2.88
2022-11-24T10:15:41.595Z,2.80
2022-11-24T10:18:20.791Z,2.60
2022-11-24T10:21:22.065Z,2.20
2022-11-24T10:24:08.147Z,2.20
2022-11-24T10:26:36.620Z,2.17
2022-11-24T10:29:13.934Z,1.90
2022-11-24T10:31:43.633Z,2.78
2022-11-24T10:34:23.852Z,2.47
2022-11-24T10:37:00.653Z,2.50
2022-11-24T10:39:54.778Z,2.38
2022-11-24T10:42:31.542Z,2.10
2022-11-24T10:45:12.784Z,2.30
2022-11-24T10:47:40.937Z,2.23
2022-11-24T10:50:11.331Z,2.50
2022-11-24T10:52:44.959Z,2.15
2022-11-24T10:55:12.260Z,2.08
2022-11-24T10:57:41.240Z,1.90
2022-11-24T11:00:20.585Z,2.50
2022-11-24T11:03:10.466Z,2.10
2022-11-24T11:05:42.998Z,1.88
2022-11-24T11:08:16.400Z,2.03
2022-11-24T11:10:45.273Z,2.10
2022-11-24T11:13:30.178Z,1.90
2022-11-24T11:15:59.090Z,1.63
2022-11-24T11:18:33.602Z,2.45
2022-11-24T11:21:02.597Z,2.33
2022-11-24T11:23:36.202Z,2.47
2022-11-24T11:26:32.267Z,2.17
2022-11-24T11:34:51.919Z,2.97
2022-11-24T11:37:21.209Z,2.60
2022-11-24T11:39:50.925Z,2.00
2022-11-24T11:45:25.745Z,2.05
2022-11-24T11:48:02.139Z,2.58
2022-11-24T11:50:59.125Z,1.88
2022-11-24T11:53:45.162Z,2.55
2022-11-24T11:56:24.378Z,1.98
2022-11-24T11:59:12.942Z,2.20
2022-11-24T12:02:20.200Z,2.08
2022-11-24T12:05:05.323Z,2.28
2022-11-24T12:07:52.714Z,2.33
2022-11-24T12:10:41.413Z,2.33
2022-11-24T12:13:23.792Z,2.13
2022-11-24T12:15:56.399Z,2.45
2022-11-24T12:18:57.572Z,2.47
2022-11-24T12:21:38.559Z,2.55
2022-11-24T12:24:22.094Z,2.28
2022-11-24T12:27:01.613Z,2.33
2022-11-24T12:29:54.030Z,2.10
2022-11-24T12:32:47.709Z,2.33
2022-11-24T12:35:49.422Z,2.30
2022-11-24T12:38:28.133Z,2.03
2022-11-24T12:44:18.283Z,2.63
2022-11-24T12:47:12.305Z,1.98
2022-11-24T12:50:20.380Z,2.83
2022-11-24T12:53:17.936Z,2.38
2022-11-24T12:55:46.297Z,2.47
2022-11-24T12:58:33.056Z,2.80
2022-11-24T13:01:16.394Z,2.65
2022-11-24T13:04:17.771Z,2.63
2022-11-24T13:06:51.260Z,2.30
2022-11-24T13:09:18.689Z,2.38
2022-11-24T13:11:50.969Z,2.20
2022-11-24T13:14:32.452Z,2.30
2022-11-24T13:19:50.060Z,2.58
2022-11-24T13:22:24.710Z,2.90
2022-11-24T13:25:10.790Z,2.63
2022-11-24T13:27:44.062Z,3.20
2022-11-24T13:30:35.978Z,2.50
2022-11-24T13:33:27.112Z,3.03
2022-11-24T13:36:04.359Z,3.25
2022-11-24T13:38:41.005Z,3.22
2022-11-24T13:41:27.747Z,3.00
2022-11-24T13:44:17.097Z,3.08
2022-11-24T13:47:05.779Z,2.78
2022-11-24T13:49:42.666Z,3.03
2022-11-24T13:52:40.814Z,3.35
2022-11-24T13:55:14.294Z,3.05
2022-11-24T13:57:54.573Z,3.20
2022-11-24T14:01:11.063Z,3.25
2022-11-24T14:04:07.284Z,4.28
2022-11-24T14:07:02.456Z,4.05
2022-11-24T14:09:44.667Z,3.25
2022-11-24T14:12:25.351Z,3.10
2022-11-24T14:14:56.829Z,2.60
2022-11-24T14:17:28.797Z,2.72
2022-11-24T14:19:58.260Z,2.78
2022-11-24T14:22:39.357Z,3.10
2022-11-24T14:25:19.887Z,3.33
2022-11-24T14:27:47.431Z,3.33
2022-11-24T14:30:14.697Z,2.78
2022-11-24T14:32:54.249Z,3.15
2022-11-24T14:35:46.427Z,3.00
2022-11-24T14:40:52.564Z,3.22
2022-11-24T14:43:33.693Z,3.05
2022-11-24T14:46:08.329Z,2.85
2022-11-24T14:48:40.484Z,3.90
2022-11-24T14:51:24.234Z,3.25
2022-11-24T14:53:54.594Z,3.28
2022-11-24T14:56:25.476Z,3.22
2022-11-24T14:58:57.092Z,2.70
2022-11-24T15:01:34.970Z,2.50
2022-11-24T15:04:54.807Z,3.60
2022-11-24T15:07:27.157Z,3.00
2022-11-24T15:09:59.895Z,2.65
2022-11-24T15:12:42.621Z,2.80
2022-11-24T15:15:16.053Z,3.28
2022-11-24T15:17:59.371Z,3.15
2022-11-24T15:20:43.139Z,3.85
2022-11-24T15:23:24.710Z,2.95
2022-11-24T15:25:55.885Z,3.08
2022-11-24T15:28:27.194Z,2.63
2022-11-24T15:31:05.632Z,2.70
2022-11-24T15:33:33.389Z,3.55
2022-11-24T15:36:00.954Z,3.05
2022-11-24T15:38:28.295Z,3.00
2022-11-24T15:40:58.470Z,2.83
2022-11-24T15:43:41.066Z,3.28
2022-11-24T15:46:09.289Z,3.22
2022-11-24T15:48:36.704Z,4.47
2022-11-24T15:51:07.258Z,4.00
2022-11-24T15:53:38.877Z,3.70
2022-11-24T15:56:15.610Z,4.38
2022-11-24T15:58:43.040Z,3.13
2022-11-24T16:01:10.345Z,3.13
2022-11-24T16:03:46.917Z,3.67
2022-11-24T16:06:24.700Z,3.40
2022-11-24T16:08:54.301Z,4.07
2022-11-24T16:11:22.025Z,3.28
2022-11-24T16:13:52.951Z,3.58
2022-11-24T16:16:23.157Z,4.70
2022-11-24T16:18:51.091Z,3.70
2022-11-24T16:21:18.352Z,3.63
2022-11-24T16:23:46.631Z,3.78
2022-11-24T16:26:14.014Z,3.78
2022-11-24T16:28:42.307Z,5.13
2022-11-24T16:31:09.916Z,5.18
2022-11-24T16:33:40.826Z,5.72
2022-11-24T16:36:08.862Z,8.52
2022-11-24T16:38:36.276Z,5.05
2022-11-24T16:41:03.735Z,5.05
2022-11-24T16:43:31.253Z,4.60
2022-11-24T16:46:18.936Z,4.35
2022-11-24T16:48:48.097Z,4.72
2022-11-24T16:51:16.435Z,4.15
2022-11-24T16:53:43.986Z,4.60
2022-11-24T16:56:11.883Z,4.93
2022-11-24T16:58:40.965Z,4.47
2022-11-24T17:01:11.857Z,4.85
2022-11-24T17:03:39.569Z,6.78
2022-11-24T17:06:08.947Z,6.15
2022-11-24T17:08:38.431Z,5.40
2022-11-24T17:11:10.801Z,5.55
2022-11-24T17:13:39.926Z,5.10
2022-11-24T17:16:09.778Z,5.38
2022-11-24T17:18:38.653Z,6.28
2022-11-24T17:21:09.963Z,5.82
2022-11-24T17:23:38.143Z,6.05
2022-11-24T17:26:10.512Z,6.55
2022-11-24T17:28:38.142Z,8.18
2022-11-24T17:31:09.482Z,7.35
2022-11-24T17:33:37.085Z,6.13
2022-11-24T17:36:07.739Z,5.85
2022-11-24T17:38:37.050Z,7.82
2022-11-24T17:41:05.361Z,6.65
2022-11-24T17:43:33.401Z,6.55
2022-11-24T17:46:02.801Z,5.70
2022-11-24T17:48:31.225Z,5.97
2022-11-24T17:51:10.738Z,6.88
2022-11-24T17:53:39.294Z,6.50
2022-11-24T17:56:08.548Z,5.95
2022-11-24T17:58:41.266Z,5.60
2022-11-24T18:01:10.646Z,6.07
2022-11-24T18:03:42.477Z,7.15
2022-11-24T18:06:12.285Z,6.20
2022-11-24T18:08:42.364Z,6.22
2022-11-24T18:11:13.446Z,7.70
2022-11-24T18:13:58.038Z,6.43
2022-11-24T18:16:28.537Z,6.90
2022-11-24T18:19:09.800Z,7.60
2022-11-24T18:21:43.732Z,7.55
2022-11-24T18:24:13.074Z,7.85
2022-11-24T18:26:41.841Z,8.50
2022-11-24T18:29:10.195Z,7.45
2022-11-24T18:31:38.295Z,8.25
2022-11-24T18:34:06.361Z,8.85
2022-11-24T18:36:34.893Z,8.00
2022-11-24T18:39:04.188Z,9.55
2022-11-24T18:41:32.005Z,9.43
2022-11-24T18:44:03.120Z,8.98
2022-11-24T18:46:30.869Z,9.27
2022-11-24T18:48:59.333Z,8.95
2022-11-24T18:51:27.300Z,8.70
2022-11-24T18:53:54.858Z,9.30
2022-11-24T18:56:22.254Z,9.77
2022-11-24T18:58:53.379Z,9.98
2022-11-24T19:01:23.249Z,10.23
2022-11-24T19:03:53.588Z,9.77
2022-11-24T19:06:41.436Z,9.15
2022-11-24T19:09:16.069Z,9.85
2022-11-24T19:11:45.041Z,8.45
2022-11-24T19:14:14.725Z,8.52
2022-11-24T19:16:43.114Z,8.40
2022-11-24T19:19:12.152Z,9.43
2022-11-24T19:21:40.421Z,8.48
2022-11-24T19:24:13.235Z,6.88
2022-11-24T19:26:40.774Z,7.38
2022-11-24T19:29:09.426Z,7.85
2022-11-24T19:31:38.464Z,8.18
2022-11-24T19:34:08.043Z,7.50
2022-11-24T19:36:35.945Z,6.90
2022-11-24T19:39:05.023Z,8.30
2022-11-24T19:41:33.547Z,7.10
2022-11-24T19:44:00.992Z,7.15
2022-11-24T19:46:29.899Z,7.13
2022-11-24T19:49:00.503Z,7.10
2022-11-24T19:51:33.392Z,7.35
2022-11-24T19:54:03.703Z,7.85
2022-11-24T19:56:34.826Z,8.45
2022-11-24T19:59:04.621Z,7.27
2022-11-24T20:01:34.735Z,8.10
2022-11-24T20:04:04.910Z,7.70
2022-11-24T20:06:38.170Z,8.18
2022-11-24T20:09:08.166Z,7.32
2022-11-24T20:11:36.436Z,7.72
2022-11-24T20:14:04.546Z,7.97
2022-11-24T20:16:33.873Z,8.07
2022-11-24T20:19:05.843Z,8.77
2022-11-24T20:21:35.102Z,9.73
2022-11-24T20:24:03.903Z,8.35
2022-11-24T20:26:36.873Z,8.98
2022-11-24T20:29:04.890Z,9.98
2022-11-24T20:31:35.549Z,9.13
2022-11-24T20:34:04.764Z,9.32
2022-11-24T20:36:34.875Z,8.93
2022-11-24T20:39:06.212Z,7.53
2022-11-24T20:41:35.696Z,7.68
2022-11-24T20:44:08.206Z,7.35
2022-11-24T20:46:38.415Z,7.43
2022-11-24T20:49:07.826Z,7.72
2022-11-24T20:51:41.967Z,7.80
2022-11-24T20:54:10.579Z,8.27
2022-11-24T20:56:40.966Z,6.85
2022-11-24T20:59:11.864Z,7.10
2022-11-24T21:01:42.575Z,6.93
2022-11-24T21:04:12.705Z,6.93
2022-11-24T21:06:40.427Z,7.30
2022-11-24T21:09:09.237Z,9.57
2022-11-24T21:11:38.073Z,13.30
2022-11-24T21:14:06.513Z,11.63
2022-11-24T21:16:36.757Z,10.43
2022-11-24T21:19:13.078Z,9.70
2022-11-24T21:21:42.800Z,8.85
2022-11-24T21:24:13.380Z,10.48
2022-11-24T21:26:42.119Z,8.25
2022-11-24T21:29:12.114Z,9.38
2022-11-24T21:31:39.550Z,9.35
2022-11-24T21:34:08.209Z,10.35
2022-11-24T21:36:36.270Z,9.85
2022-11-24T21:39:03.950Z,9.73
2022-11-24T21:41:33.454Z,12.60
2022-11-24T21:44:01.114Z,15.07
2022-11-24T21:46:30.147Z,11.00
2022-11-24T21:48:57.675Z,10.68
2022-11-24T21:51:24.953Z,9.60
2022-11-24T21:53:52.161Z,11.05
2022-11-24T21:56:20.989Z,10.18
2022-11-24T21:58:50.020Z,9.43
2022-11-24T22:01:18.904Z,10.43
2022-11-24T22:03:47.069Z,11.80
2022-11-24T22:06:15.603Z,10.18
2022-11-24T22:08:42.905Z,10.35
2022-11-24T22:11:16.224Z,10.27
2022-11-24T22:13:44.919Z,10.05
2022-11-24T22:16:19.914Z,9.15
2022-11-24T22:18:48.327Z,9.90
2022-11-24T22:21:18.129Z,9.95
2022-11-24T22:23:45.697Z,9.82
2022-11-24T22:26:15.717Z,11.40
2022-11-24T22:28:44.423Z,10.80
2022-11-24T22:31:14.580Z,10.32
2022-11-24T22:33:43.764Z,9.55
2022-11-24T22:36:12.844Z,10.63
2022-11-24T22:38:40.834Z,11.77
2022-11-24T22:41:12.890Z,12.15
2022-11-24T22:46:13.634Z,10.23
2022-11-24T22:48:41.939Z,9.73
2022-11-24T22:51:17.699Z,9.50
2022-11-24T22:54:12.033Z,8.80
2022-11-24T22:56:39.341Z,9.70
2022-11-24T22:59:06.704Z,10.10
2022-11-24T23:01:34.261Z,8.93
2022-11-24T23:04:02.597Z,9.13
2022-11-24T23:06:32.236Z,9.63
2022-11-24T23:09:01.417Z,9.65
2022-11-24T23:11:37.158Z,9.20
2022-11-24T23:14:08.136Z,9.38
2022-11-24T23:16:35.516Z,9.18
2022-11-24T23:19:03.293Z,9.02
2022-11-24T23:21:34.550Z,8.43
2022-11-24T23:24:04.097Z,8.75
2022-11-24T23:26:34.277Z,9.38
2022-11-24T23:29:01.937Z,9.80
2022-11-24T23:31:29.721Z,9.20
2022-11-24T23:34:02.366Z,9.65
2022-11-24T23:36:30.177Z,9.25
2022-11-24T23:39:05.219Z,8.10
2022-11-24T23:41:33.162Z,8.77
2022-11-24T23:44:00.760Z,8.57
2022-11-24T23:46:28.684Z,8.57
2022-11-24T23:48:57.126Z,8.82
2022-11-24T23:51:29.680Z,9.07
2022-11-24T23:53:57.968Z,8.07
2022-11-24T23:56:33.256Z,7.63
2022-11-24T23:59:03.370Z,8.00
